createdAt,value
2019-03-01T00:01:16.100Z,12.43
2019-03-01T00:04:12.684Z,13.03
2019-03-01T00:07:11.637Z,13.30
2019-03-01T00:10:02.154Z,13.30
2019-03-01T00:13:03.363Z,13.80
2019-03-01T00:15:52.223Z,12.93
2019-03-01T00:18:49.557Z,13.87
2019-03-01T00:21:48.274Z,13.73
2019-03-01T00:25:18.843Z,12.97
2019-03-01T00:28:38.509Z,13.13
2019-03-01T00:31:41.326Z,12.83
2019-03-01T00:34:46.301Z,12.30
2019-03-01T00:37:51.479Z,12.80
2019-03-01T00:40:50.153Z,11.93
2019-03-01T00:44:05.154Z,12.70
2019-03-01T00:46:35.917Z,13.30
2019-03-01T00:49:06.748Z,12.83
2019-03-01T00:51:37.525Z,12.87
2019-03-01T00:54:08.484Z,12.57
2019-03-01T00:56:39.332Z,12.80
2019-03-01T00:59:10.106Z,11.93
2019-03-01T01:01:40.957Z,13.17
2019-03-01T01:04:11.780Z,12.00
2019-03-01T01:06:42.559Z,12.90
2019-03-01T01:09:13.517Z,12.70
2019-03-01T01:11:44.280Z,12.10
2019-03-01T01:14:15.064Z,12.83
2019-03-01T01:16:45.872Z,12.80
2019-03-01T01:19:16.631Z,12.67
2019-03-01T01:21:47.434Z,12.20
2019-03-01T01:24:18.282Z,13.07
2019-03-01T01:26:49.126Z,13.73
2019-03-01T01:29:19.977Z,13.20
2019-03-01T01:31:51.107Z,14.13
2019-03-01T01:34:21.891Z,13.93
2019-03-01T01:36:52.646Z,14.33
2019-03-01T01:39:23.398Z,13.70
2019-03-01T01:41:54.174Z,14.63
2019-03-01T01:44:24.978Z,13.27
2019-03-01T01:46:55.775Z,12.67
2019-03-01T01:49:26.546Z,14.30
2019-03-01T01:51:58.368Z,13.47
2019-03-01T01:54:29.194Z,13.80
2019-03-01T01:56:59.974Z,13.80
2019-03-01T01:59:30.736Z,15.37
2019-03-01T02:02:01.526Z,12.90
2019-03-01T02:04:32.278Z,15.03
2019-03-01T02:07:03.060Z,13.60
2019-03-01T02:09:35.542Z,15.20
2019-03-01T02:12:06.407Z,14.07
2019-03-01T02:14:37.167Z,14.70
2019-03-01T02:17:09.810Z,15.00
2019-03-01T02:19:41.892Z,13.77
2019-03-01T02:22:12.704Z,14.17
2019-03-01T02:24:43.467Z,15.27
2019-03-01T02:27:25.452Z,15.40
2019-03-01T02:29:56.601Z,15.43
2019-03-01T02:32:47.790Z,15.63
2019-03-01T02:35:23.452Z,14.67
2019-03-01T02:37:54.275Z,15.53
2019-03-01T02:40:25.051Z,15.37
2019-03-01T02:42:55.814Z,14.93
2019-03-01T02:45:26.568Z,15.27
2019-03-01T02:47:57.331Z,14.10
2019-03-01T02:50:28.093Z,15.47
2019-03-01T02:52:58.863Z,16.50
2019-03-01T02:55:29.647Z,17.03
2019-03-01T02:58:00.420Z,14.83
2019-03-01T03:00:31.413Z,15.87
2019-03-01T03:03:02.220Z,15.50
2019-03-01T03:05:34.736Z,15.80
2019-03-01T03:08:07.477Z,16.07
2019-03-01T03:10:38.303Z,16.43
2019-03-01T03:13:10.218Z,16.63
2019-03-01T03:15:44.506Z,15.27
2019-03-01T03:18:15.315Z,16.17
2019-03-01T03:20:47.318Z,14.30
2019-03-01T03:23:18.286Z,16.10
2019-03-01T03:25:49.073Z,15.23
2019-03-01T03:28:19.927Z,14.00
2019-03-01T03:30:51.960Z,15.33
2019-03-01T03:33:22.855Z,15.23
2019-03-01T03:35:53.696Z,15.50
2019-03-01T03:38:24.534Z,14.57
2019-03-01T03:40:55.454Z,15.27
2019-03-01T03:43:26.279Z,16.07
2019-03-01T03:45:57.043Z,15.63
2019-03-01T03:48:27.905Z,14.93
2019-03-01T03:50:58.677Z,14.17
2019-03-01T03:53:29.437Z,15.17
2019-03-01T03:56:00.199Z,14.70
2019-03-01T03:58:31.045Z,14.73
2019-03-01T04:01:02.023Z,16.17
2019-03-01T04:03:32.833Z,15.23
2019-03-01T04:06:03.580Z,15.10
2019-03-01T04:08:34.475Z,15.97
2019-03-01T04:11:05.222Z,15.47
2019-03-01T04:13:36.076Z,15.40
2019-03-01T04:16:06.798Z,14.63
2019-03-01T04:18:37.557Z,14.07
2019-03-01T04:21:09.599Z,14.73
2019-03-01T04:23:40.417Z,14.57
2019-03-01T04:26:11.364Z,14.77
2019-03-01T04:28:42.289Z,15.50
2019-03-01T04:31:13.151Z,16.20
2019-03-01T04:33:43.935Z,15.90
2019-03-01T04:36:14.865Z,15.57
2019-03-01T04:38:45.635Z,17.33
2019-03-01T04:41:16.403Z,16.77
2019-03-01T04:43:47.198Z,16.33
2019-03-01T04:46:17.965Z,17.00
2019-03-01T04:48:48.727Z,15.40
2019-03-01T04:51:19.513Z,17.53
2019-03-01T04:53:50.274Z,16.17
2019-03-01T04:56:21.843Z,15.63
2019-03-01T04:58:53.132Z,17.07
2019-03-01T05:01:23.898Z,16.90
2019-03-01T05:03:54.660Z,15.77
2019-03-01T05:06:25.434Z,16.83
2019-03-01T05:08:56.242Z,16.83
2019-03-01T05:11:27.023Z,17.93
2019-03-01T05:13:57.841Z,17.00
2019-03-01T05:16:28.687Z,17.60
2019-03-01T05:18:59.479Z,16.40
2019-03-01T05:21:30.500Z,18.60
2019-03-01T05:24:01.277Z,17.50
2019-03-01T05:26:32.135Z,17.97
2019-03-01T05:29:03.797Z,17.50
2019-03-01T05:31:34.618Z,18.67
2019-03-01T05:34:05.398Z,18.50
2019-03-01T05:36:37.185Z,17.67
2019-03-01T05:39:07.971Z,19.90
2019-03-01T05:41:38.923Z,17.83
2019-03-01T05:44:11.410Z,18.43
2019-03-01T05:46:42.206Z,18.40
2019-03-01T05:49:13.112Z,18.83
2019-03-01T05:51:43.997Z,18.03
2019-03-01T05:54:14.765Z,17.80
2019-03-01T05:56:45.552Z,18.37
2019-03-01T05:59:18.974Z,18.80
2019-03-01T06:02:40.004Z,17.37
2019-03-01T06:05:14.353Z,17.97
2019-03-01T06:08:01.041Z,17.60
2019-03-01T06:10:46.782Z,18.13
2019-03-01T06:13:51.011Z,17.70
2019-03-01T06:16:49.159Z,19.67
2019-03-01T06:20:06.584Z,19.27
2019-03-01T06:23:14.624Z,18.63
2019-03-01T06:26:33.612Z,18.73
2019-03-01T06:29:36.712Z,20.80
2019-03-01T06:32:47.682Z,20.90
2019-03-01T06:35:59.652Z,21.13
2019-03-01T06:39:05.339Z,23.20
2019-03-01T06:42:29.196Z,25.30
2019-03-01T06:45:38.136Z,26.87
2019-03-01T06:48:10.816Z,31.37
2019-03-01T06:50:54.478Z,29.07
2019-03-01T06:53:25.391Z,29.70
2019-03-01T06:55:59.741Z,30.87
2019-03-01T06:58:33.315Z,32.33
2019-03-01T07:01:08.527Z,30.97
2019-03-01T07:03:39.364Z,30.90
2019-03-01T07:06:10.259Z,33.57
2019-03-01T07:08:41.032Z,34.47
2019-03-01T07:11:11.932Z,34.17
2019-03-01T07:13:42.736Z,35.57
2019-03-01T07:16:13.686Z,35.80
2019-03-01T07:18:44.458Z,37.10
2019-03-01T07:21:15.247Z,37.87
2019-03-01T07:23:46.058Z,37.57
2019-03-01T07:26:16.867Z,40.23
2019-03-01T07:28:47.714Z,42.20
2019-03-01T07:31:19.439Z,41.87
2019-03-01T07:33:50.279Z,43.40
2019-03-01T07:36:21.055Z,45.00
2019-03-01T07:38:52.862Z,41.87
2019-03-01T07:41:23.696Z,44.43
2019-03-01T07:43:55.509Z,45.60
2019-03-01T07:46:26.408Z,45.90
2019-03-01T07:48:57.195Z,46.40
2019-03-01T07:51:30.707Z,49.40
2019-03-01T07:54:02.129Z,47.13
2019-03-01T07:56:36.988Z,50.53
2019-03-01T07:59:06.914Z,47.57
2019-03-01T08:01:37.715Z,49.83
2019-03-01T08:04:09.960Z,50.90
2019-03-01T08:06:42.265Z,52.07
2019-03-01T08:09:14.137Z,51.37
2019-03-01T08:11:45.013Z,50.07
2019-03-01T08:14:15.883Z,53.80
2019-03-01T08:16:46.717Z,52.53
2019-03-01T08:19:22.279Z,56.23
2019-03-01T08:21:50.363Z,50.67
2019-03-01T08:24:22.817Z,53.70
2019-03-01T08:26:53.736Z,54.47
2019-03-01T08:29:24.553Z,54.77
2019-03-01T08:31:56.726Z,56.77
2019-03-01T08:34:27.820Z,51.40
2019-03-01T08:36:58.750Z,55.90
2019-03-01T08:39:29.562Z,54.33
2019-03-01T08:42:01.364Z,52.53
2019-03-01T08:44:33.482Z,52.83
2019-03-01T08:47:04.352Z,53.40
2019-03-01T08:49:35.219Z,51.97
2019-03-01T08:52:06.142Z,53.30
2019-03-01T08:54:37.068Z,52.57
2019-03-01T08:57:07.936Z,52.37
2019-03-01T08:59:39.891Z,51.83
2019-03-01T09:02:11.936Z,49.67
2019-03-01T09:04:50.638Z,48.03
2019-03-01T09:07:15.630Z,52.03
2019-03-01T09:09:46.431Z,49.17
2019-03-01T09:12:17.270Z,51.13
2019-03-01T09:14:48.223Z,53.87
2019-03-01T09:17:18.999Z,51.17
2019-03-01T09:19:49.780Z,52.17
2019-03-01T09:22:20.576Z,50.60
2019-03-01T09:24:52.586Z,50.73
2019-03-01T09:27:26.668Z,48.83
2019-03-01T09:29:56.212Z,51.17
2019-03-01T09:32:30.435Z,49.87
2019-03-01T09:35:30.119Z,50.20
2019-03-01T09:38:00.968Z,50.10
2019-03-01T09:40:31.976Z,50.13
2019-03-01T09:43:02.844Z,46.23
2019-03-01T09:45:36.625Z,45.90
2019-03-01T09:48:08.682Z,44.33
2019-03-01T09:50:38.868Z,43.03
2019-03-01T09:53:11.053Z,43.30
2019-03-01T09:55:42.014Z,43.07
2019-03-01T09:58:12.903Z,41.67
2019-03-01T10:00:55.978Z,41.87
2019-03-01T10:03:19.207Z,43.43
2019-03-01T10:05:50.038Z,44.23
2019-03-01T10:08:21.013Z,43.37
2019-03-01T10:10:51.910Z,39.30
2019-03-01T10:13:22.750Z,37.00
2019-03-01T10:15:53.534Z,34.93
2019-03-01T10:18:26.164Z,33.17
2019-03-01T10:21:00.254Z,33.07
2019-03-01T10:23:31.089Z,31.63
2019-03-01T10:26:01.995Z,32.93
2019-03-01T10:28:32.927Z,30.37
2019-03-01T10:31:03.949Z,30.77
2019-03-01T10:33:35.821Z,28.83
2019-03-01T10:36:06.846Z,26.27
2019-03-01T10:38:37.711Z,28.37
2019-03-01T10:41:08.548Z,27.70
2019-03-01T10:43:39.358Z,27.77
2019-03-01T10:46:10.136Z,24.77
2019-03-01T10:48:40.931Z,26.43
2019-03-01T10:51:11.706Z,27.37
2019-03-01T10:53:43.621Z,26.73
2019-03-01T10:56:14.575Z,27.03
2019-03-01T10:58:45.393Z,27.70
2019-03-01T11:01:17.554Z,27.83
2019-03-01T11:03:48.487Z,27.77
2019-03-01T11:06:19.322Z,27.80
2019-03-01T11:08:50.239Z,23.37
2019-03-01T11:11:21.081Z,20.20
2019-03-01T11:13:51.998Z,18.40
2019-03-01T11:16:22.938Z,17.33
2019-03-01T11:18:53.785Z,15.50
2019-03-01T11:21:24.650Z,15.50
2019-03-01T11:23:56.665Z,14.27
2019-03-01T11:26:28.555Z,13.73
2019-03-01T11:28:59.340Z,13.07
2019-03-01T11:31:30.114Z,13.73
2019-03-01T11:34:01.836Z,12.63
2019-03-01T11:36:34.494Z,12.10
2019-03-01T11:39:06.713Z,11.80
2019-03-01T11:41:38.193Z,11.03
2019-03-01T11:44:09.209Z,10.97
2019-03-01T11:46:40.115Z,9.17
2019-03-01T11:49:11.074Z,10.07
2019-03-01T11:51:41.958Z,8.73
2019-03-01T11:54:14.850Z,7.80
2019-03-01T11:56:45.815Z,7.93
2019-03-01T11:59:16.614Z,8.00
2019-03-01T12:01:47.390Z,8.23
2019-03-01T12:04:18.472Z,6.97
2019-03-01T12:06:49.271Z,7.67
2019-03-01T12:09:20.163Z,8.33
2019-03-01T12:11:50.974Z,9.00
2019-03-01T12:14:22.423Z,9.77
2019-03-01T12:16:54.842Z,10.90
2019-03-01T12:19:27.567Z,11.30
2019-03-01T12:22:00.012Z,11.67
2019-03-01T12:24:31.987Z,11.63
2019-03-01T12:27:02.866Z,10.13
2019-03-01T12:29:33.827Z,10.23
2019-03-01T12:32:04.848Z,10.50
2019-03-01T12:34:35.840Z,10.37
2019-03-01T12:37:08.331Z,9.23
2019-03-01T12:39:39.256Z,9.63
2019-03-01T12:42:10.149Z,10.03
2019-03-01T12:44:41.181Z,9.77
2019-03-01T12:47:14.749Z,10.23
2019-03-01T12:49:45.832Z,9.93
2019-03-01T12:52:16.695Z,8.40
2019-03-01T12:54:47.572Z,8.27
2019-03-01T12:57:18.356Z,8.10
2019-03-01T12:59:49.250Z,7.57
2019-03-01T13:02:20.206Z,8.07
2019-03-01T13:04:53.601Z,8.23
2019-03-01T13:07:23.582Z,7.57
2019-03-01T13:09:54.385Z,7.70
2019-03-01T13:12:26.177Z,8.00
2019-03-01T13:14:58.062Z,7.23
2019-03-01T13:17:29.294Z,7.80
2019-03-01T13:20:01.114Z,8.17
2019-03-01T13:22:32.854Z,9.00
2019-03-01T13:25:04.846Z,8.80
2019-03-01T13:27:35.700Z,9.57
2019-03-01T13:30:07.751Z,9.13
2019-03-01T13:32:43.366Z,9.50
2019-03-01T13:35:17.019Z,9.33
2019-03-01T13:37:51.937Z,8.87
2019-03-01T13:40:24.402Z,8.47
2019-03-01T13:42:56.344Z,8.97
2019-03-01T13:45:28.283Z,9.73
2019-03-01T13:47:59.059Z,9.40
2019-03-01T13:50:31.686Z,9.43
2019-03-01T13:53:02.452Z,9.03
2019-03-01T13:55:33.304Z,9.73
2019-03-01T13:58:04.136Z,9.57
2019-03-01T14:00:35.167Z,9.40
2019-03-01T14:03:06.135Z,9.57
2019-03-01T14:05:37.229Z,10.63
2019-03-01T14:08:09.254Z,9.93
2019-03-01T14:10:41.758Z,8.77
2019-03-01T14:13:14.414Z,8.70
2019-03-01T14:15:45.589Z,10.17
2019-03-01T14:18:16.448Z,10.40
2019-03-01T14:20:47.508Z,10.00
2019-03-01T14:23:21.220Z,9.67
2019-03-01T14:25:51.790Z,9.10
2019-03-01T14:28:22.622Z,9.43
2019-03-01T14:30:53.512Z,9.80
2019-03-01T14:33:24.377Z,10.90
2019-03-01T14:35:59.223Z,9.73
2019-03-01T14:38:29.896Z,10.30
2019-03-01T14:41:02.425Z,9.50
2019-03-01T14:43:33.359Z,10.03
2019-03-01T14:46:04.275Z,9.37
2019-03-01T14:48:35.232Z,10.90
2019-03-01T14:51:07.091Z,9.80
2019-03-01T14:53:39.708Z,10.27
2019-03-01T14:56:14.257Z,9.40
2019-03-01T14:58:56.020Z,9.53
2019-03-01T15:01:50.758Z,9.40
2019-03-01T15:04:28.226Z,8.73
2019-03-01T15:06:56.172Z,8.70
2019-03-01T15:09:27.225Z,8.13
2019-03-01T15:11:58.019Z,8.70
2019-03-01T15:14:29.056Z,8.43
2019-03-01T15:16:59.882Z,8.10
2019-03-01T15:19:30.712Z,7.80
2019-03-01T15:22:03.755Z,7.73
2019-03-01T15:24:36.179Z,6.80
2019-03-01T15:27:07.783Z,7.23
2019-03-01T15:29:38.662Z,10.30
2019-03-01T15:32:09.776Z,7.80
2019-03-01T15:34:42.252Z,6.33
2019-03-01T15:37:15.794Z,6.87
2019-03-01T15:39:51.245Z,6.23
2019-03-01T15:42:21.391Z,6.80
2019-03-01T15:44:53.269Z,6.80
2019-03-01T15:47:26.613Z,5.80
2019-03-01T15:49:57.003Z,5.00
2019-03-01T15:52:27.809Z,5.87
2019-03-01T15:54:58.682Z,5.27
2019-03-01T15:57:29.510Z,5.40
2019-03-01T16:00:00.386Z,4.90
2019-03-01T16:02:31.183Z,4.73
2019-03-01T16:05:01.998Z,4.40
2019-03-01T16:07:33.871Z,4.37
2019-03-01T16:10:05.270Z,4.10
2019-03-01T16:12:36.362Z,4.20
2019-03-01T16:15:09.430Z,3.87
2019-03-01T16:17:40.278Z,3.77
2019-03-01T16:20:12.821Z,3.93
2019-03-01T16:22:43.819Z,4.20
2019-03-01T16:25:17.209Z,3.70
2019-03-01T16:27:46.738Z,4.57
2019-03-01T16:30:18.360Z,4.10
2019-03-01T16:32:50.928Z,4.57
2019-03-01T16:35:22.132Z,3.67
2019-03-01T16:37:53.601Z,3.50
2019-03-01T16:40:24.807Z,3.80
2019-03-01T16:42:55.608Z,3.50
2019-03-01T16:45:26.528Z,3.03
2019-03-01T16:47:57.547Z,3.77
2019-03-01T16:50:29.626Z,3.37
2019-03-01T16:53:04.099Z,2.90
2019-03-01T16:55:33.176Z,3.60
2019-03-01T16:58:07.436Z,3.20
2019-03-01T17:00:36.618Z,3.70
2019-03-01T17:03:07.808Z,3.10
2019-03-01T17:05:39.719Z,3.23
2019-03-01T17:08:10.687Z,3.60
2019-03-01T17:10:41.609Z,3.57
2019-03-01T17:13:12.466Z,3.73
2019-03-01T17:15:45.579Z,3.37
2019-03-01T17:18:15.905Z,3.00
2019-03-01T17:20:46.784Z,3.20
2019-03-01T17:57:09.016Z,2.40
2019-03-01T17:59:40.117Z,2.50
2019-03-01T18:02:14.952Z,2.37
2019-03-01T18:04:45.086Z,3.30
2019-03-01T18:07:17.656Z,3.60
2019-03-01T18:09:51.937Z,2.90
2019-03-01T18:12:21.599Z,2.80
2019-03-01T18:14:54.658Z,2.47
2019-03-01T18:17:25.899Z,2.80
2019-03-01T18:19:58.812Z,2.63
2019-03-01T18:22:29.796Z,2.37
2019-03-01T18:25:00.893Z,2.80
2019-03-01T18:27:32.822Z,3.00
2019-03-01T18:30:05.627Z,3.03
2019-03-01T18:32:36.819Z,3.13
2019-03-01T18:35:11.481Z,2.50
2019-03-01T18:37:42.164Z,2.60
2019-03-01T18:40:13.466Z,2.40
2019-03-01T18:42:45.701Z,1.90
2019-03-01T18:45:17.307Z,1.70
2019-03-01T18:47:48.377Z,2.13
2019-03-01T18:50:27.559Z,1.70
2019-03-01T18:52:57.503Z,1.50
2019-03-01T18:55:28.441Z,1.57
2019-03-01T18:58:01.314Z,1.50
2019-03-01T19:00:36.892Z,1.63
2019-03-01T19:03:08.224Z,1.27
2019-03-01T19:05:40.237Z,1.63
2019-03-01T19:08:12.909Z,1.80
2019-03-01T19:10:43.841Z,1.87
2019-03-01T19:13:14.849Z,1.97
2019-03-01T19:15:48.486Z,1.70
2019-03-01T19:18:20.375Z,3.00
2019-03-01T19:20:51.653Z,1.57
2019-03-01T19:23:22.591Z,1.80
2019-03-01T19:25:53.844Z,1.63
2019-03-01T19:28:26.758Z,2.30
2019-03-01T19:30:59.626Z,2.20
2019-03-01T19:33:30.633Z,2.10
2019-03-01T19:36:03.590Z,2.20
2019-03-01T19:38:34.546Z,1.90
2019-03-01T19:41:05.537Z,2.33
2019-03-01T19:43:37.575Z,2.30
2019-03-01T19:46:08.562Z,2.20
2019-03-01T19:48:39.578Z,2.40
2019-03-01T19:51:11.891Z,2.50
2019-03-01T19:53:42.892Z,2.50
2019-03-01T19:56:13.897Z,2.40
2019-03-01T19:58:48.083Z,2.63
2019-03-01T20:01:17.978Z,2.60
2019-03-01T20:03:49.595Z,2.57
2019-03-01T20:06:21.732Z,2.80
2019-03-01T20:08:52.802Z,2.60
2019-03-01T20:11:26.720Z,5.93
2019-03-01T20:13:58.010Z,4.10
2019-03-01T20:16:29.127Z,3.00
2019-03-01T20:19:00.223Z,3.20
2019-03-01T20:21:31.325Z,3.67
2019-03-01T20:24:05.267Z,3.30
2019-03-01T20:26:34.999Z,3.43
2019-03-01T20:29:07.114Z,3.43
2019-03-01T20:31:40.540Z,3.53
2019-03-01T20:34:10.647Z,3.67
2019-03-01T20:36:41.875Z,4.60
2019-03-01T20:39:15.555Z,3.90
2019-03-01T20:41:46.603Z,3.80
2019-03-01T20:44:18.608Z,3.20
2019-03-01T20:46:50.612Z,3.93
2019-03-01T20:49:22.357Z,3.30
2019-03-01T20:51:53.244Z,4.30
2019-03-01T20:54:25.776Z,4.40
2019-03-01T20:56:57.538Z,4.10
2019-03-01T20:59:32.451Z,4.30
2019-03-01T21:02:03.553Z,4.43
2019-03-01T21:04:40.425Z,5.23
2019-03-01T21:07:12.448Z,5.33
2019-03-01T21:09:42.693Z,5.87
2019-03-01T21:12:13.772Z,5.33
2019-03-01T21:14:44.837Z,4.83
2019-03-01T21:17:20.364Z,4.50
2019-03-01T21:19:50.832Z,4.57
2019-03-01T21:22:21.738Z,4.97
2019-03-01T21:24:52.770Z,5.00
2019-03-01T21:27:25.983Z,4.97
2019-03-01T21:29:57.515Z,4.30
2019-03-01T21:32:28.506Z,5.10
2019-03-01T21:34:59.589Z,5.13
2019-03-01T21:37:30.716Z,5.30
2019-03-01T21:40:03.165Z,6.07
2019-03-01T21:42:35.468Z,4.80
2019-03-01T21:45:07.381Z,5.30
2019-03-01T21:47:38.225Z,5.77
2019-03-01T21:50:09.424Z,6.37
2019-03-01T21:52:40.315Z,6.33
2019-03-01T21:55:12.516Z,5.83
2019-03-01T21:57:43.587Z,7.77
2019-03-01T22:00:20.111Z,6.70
2019-03-01T22:02:52.934Z,6.60
2019-03-01T22:05:23.766Z,7.13
2019-03-01T22:07:54.785Z,7.47
2019-03-01T22:10:25.762Z,7.20
2019-03-01T22:13:00.093Z,6.50
2019-03-01T22:15:29.331Z,7.43
2019-03-01T22:18:01.395Z,7.73
2019-03-01T22:20:32.307Z,7.30
2019-03-01T22:23:03.247Z,7.87
2019-03-01T22:25:34.548Z,7.67
2019-03-01T22:28:06.919Z,7.40
2019-03-01T22:30:38.427Z,8.20
2019-03-01T22:33:09.322Z,7.90
2019-03-01T22:35:43.270Z,7.80
2019-03-01T22:38:12.897Z,8.30
2019-03-01T22:40:43.903Z,8.40
2019-03-01T22:43:14.720Z,8.67
2019-03-01T22:45:48.852Z,8.33
2019-03-01T22:48:19.899Z,8.87
2019-03-01T22:50:50.761Z,7.90
2019-03-01T22:53:21.961Z,8.57
2019-03-01T22:55:52.833Z,8.23
2019-03-01T22:58:23.734Z,8.53
2019-03-01T23:01:39.884Z,9.03
2019-03-01T23:04:11.131Z,8.00
2019-03-01T23:06:42.091Z,9.17
2019-03-01T23:09:17.092Z,9.23
2019-03-01T23:11:48.192Z,8.47
2019-03-01T23:14:21.437Z,9.17
2019-03-01T23:16:57.048Z,9.97
2019-03-01T23:19:29.414Z,9.33
2019-03-01T23:22:00.266Z,9.27
2019-03-01T23:24:31.673Z,9.90
2019-03-01T23:27:03.967Z,10.17
2019-03-01T23:29:34.886Z,9.67
2019-03-01T23:32:07.178Z,10.23
2019-03-01T23:34:42.592Z,9.07
2019-03-01T23:37:12.103Z,10.03
2019-03-01T23:39:45.720Z,10.70
2019-03-01T23:42:17.406Z,10.83
2019-03-01T23:44:49.172Z,11.03
2019-03-01T23:47:20.004Z,10.80
2019-03-01T23:49:51.820Z,10.57
2019-03-01T23:52:23.636Z,11.80
2019-03-01T23:54:54.509Z,11.00
2019-03-01T23:57:25.311Z,10.83
2019-03-01T23:59:58.726Z,11.57
